sensor_id;sensor_type;location;lat;lon;timestamp;pressure;altitude;pressure_sealevel;temperature;humidity
62864;BME280;48954;59.950;11.014;2023-06-10T00:00:37;100854.25;;;11.42;43.07
62864;BME280;48954;59.950;11.014;2023-06-10T00:03:23;100857.59;;;11.36;43.40
62864;BME280;48954;59.950;11.014;2023-06-10T00:05:50;100857.50;;;11.32;43.20
62864;BME280;48954;59.950;11.014;2023-06-10T00:08:16;100859.91;;;11.27;43.21
62864;BME280;48954;59.950;11.014;2023-06-10T00:10:43;100865.60;;;11.23;43.06
62864;BME280;48954;59.950;11.014;2023-06-10T00:13:09;100869.64;;;11.20;43.12
62864;BME280;48954;59.950;11.014;2023-06-10T00:15:37;100870.50;;;11.18;43.40
62864;BME280;48954;59.950;11.014;2023-06-10T00:18:04;100872.30;;;11.15;43.40
62864;BME280;48954;59.950;11.014;2023-06-10T00:20:51;100874.55;;;11.12;43.82
62864;BME280;48954;59.950;11.014;2023-06-10T00:23:17;100874.84;;;11.05;43.86
62864;BME280;48954;59.950;11.014;2023-06-10T00:25:43;100876.20;;;10.99;43.94
62864;BME280;48954;59.950;11.014;2023-06-10T00:28:10;100880.73;;;10.93;43.97
62864;BME280;48954;59.950;11.014;2023-06-10T00:30:36;100880.27;;;10.87;44.35
62864;BME280;48954;59.950;11.014;2023-06-10T00:33:03;100882.24;;;10.79;44.25
62864;BME280;48954;59.950;11.014;2023-06-10T00:35:29;100884.33;;;10.72;44.37
62864;BME280;48954;59.950;11.014;2023-06-10T00:37:56;100884.89;;;10.64;44.35
62864;BME280;48954;59.950;11.014;2023-06-10T00:40:22;100887.84;;;10.59;44.03
62864;BME280;48954;59.950;11.014;2023-06-10T00:42:49;100889.66;;;10.55;44.37
62864;BME280;48954;59.950;11.014;2023-06-10T00:45:16;100887.17;;;10.43;44.56
62864;BME280;48954;59.950;11.014;2023-06-10T00:47:43;100886.08;;;10.35;44.77
62864;BME280;48954;59.950;11.014;2023-06-10T00:50:10;100891.81;;;10.32;44.98
62864;BME280;48954;59.950;11.014;2023-06-10T00:52:37;100894.57;;;10.30;45.10
62864;BME280;48954;59.950;11.014;2023-06-10T00:55:04;100894.09;;;10.28;45.34
62864;BME280;48954;59.950;11.014;2023-06-10T00:57:32;100900.11;;;10.26;45.85
62864;BME280;48954;59.950;11.014;2023-06-10T01:00:04;100901.92;;;10.24;45.80
62864;BME280;48954;59.950;11.014;2023-06-10T01:02:30;100902.50;;;10.21;46.05
62864;BME280;48954;59.950;11.014;2023-06-10T01:04:59;100902.64;;;10.17;46.40
62864;BME280;48954;59.950;11.014;2023-06-10T01:07:31;100904.57;;;10.13;46.71
62864;BME280;48954;59.950;11.014;2023-06-10T01:10:10;100907.79;;;10.09;47.09
62864;BME280;48954;59.950;11.014;2023-06-10T01:12:44;100909.89;;;10.03;46.74
62864;BME280;48954;59.950;11.014;2023-06-10T01:15:11;100919.86;;;9.99;47.26
62864;BME280;48954;59.950;11.014;2023-06-10T01:18:16;100915.77;;;9.92;47.37
62864;BME280;48954;59.950;11.014;2023-06-10T01:20:48;100917.92;;;9.84;47.86
62864;BME280;48954;59.950;11.014;2023-06-10T01:23:15;100916.13;;;9.77;47.93
62864;BME280;48954;59.950;11.014;2023-06-10T01:25:48;100918.85;;;9.71;48.25
62864;BME280;48954;59.950;11.014;2023-06-10T01:28:20;100921.80;;;9.63;48.01
62864;BME280;48954;59.950;11.014;2023-06-10T01:33:26;100921.20;;;9.45;48.45
62864;BME280;48954;59.950;11.014;2023-06-10T01:35:53;100918.51;;;9.36;48.97
62864;BME280;48954;59.950;11.014;2023-06-10T01:38:24;100926.33;;;9.28;48.82
62864;BME280;48954;59.950;11.014;2023-06-10T01:40:55;100928.39;;;9.22;49.24
62864;BME280;48954;59.950;11.014;2023-06-10T01:43:22;100932.05;;;9.15;49.01
62864;BME280;48954;59.950;11.014;2023-06-10T01:45:49;100937.29;;;9.09;49.51
62864;BME280;48954;59.950;11.014;2023-06-10T01:48:16;100934.38;;;9.04;49.81
62864;BME280;48954;59.950;11.014;2023-06-10T01:50:42;100937.95;;;9.00;49.76
62864;BME280;48954;59.950;11.014;2023-06-10T01:53:09;100938.96;;;8.97;50.43
62864;BME280;48954;59.950;11.014;2023-06-10T01:55:35;100942.33;;;8.91;50.17
62864;BME280;48954;59.950;11.014;2023-06-10T01:58:03;100942.95;;;8.88;50.71
62864;BME280;48954;59.950;11.014;2023-06-10T02:00:30;100948.20;;;8.85;50.96
62864;BME280;48954;59.950;11.014;2023-06-10T02:02:56;100949.37;;;8.83;51.40
62864;BME280;48954;59.950;11.014;2023-06-10T02:05:23;100948.63;;;8.80;52.11
62864;BME280;48954;59.950;11.014;2023-06-10T02:07:49;100949.27;;;8.79;51.89
62864;BME280;48954;59.950;11.014;2023-06-10T02:10:16;100952.89;;;8.77;52.23
62864;BME280;48954;59.950;11.014;2023-06-10T02:12:42;100956.29;;;8.72;52.12
62864;BME280;48954;59.950;11.014;2023-06-10T02:15:09;100955.52;;;8.71;52.29
62864;BME280;48954;59.950;11.014;2023-06-10T02:17:35;100957.88;;;8.68;52.78
62864;BME280;48954;59.950;11.014;2023-06-10T02:20:02;100961.48;;;8.65;53.04
62864;BME280;48954;59.950;11.014;2023-06-10T02:22:28;100966.10;;;8.62;53.03
62864;BME280;48954;59.950;11.014;2023-06-10T02:24:55;100972.60;;;8.60;53.38
62864;BME280;48954;59.950;11.014;2023-06-10T02:27:22;100985.73;;;8.57;53.37
62864;BME280;48954;59.950;11.014;2023-06-10T02:29:48;100985.34;;;8.54;53.39
62864;BME280;48954;59.950;11.014;2023-06-10T02:32:15;100986.02;;;8.51;53.59
62864;BME280;48954;59.950;11.014;2023-06-10T02:34:42;100988.17;;;8.49;53.92
62864;BME280;48954;59.950;11.014;2023-06-10T02:37:09;100997.77;;;8.46;54.50
62864;BME280;48954;59.950;11.014;2023-06-10T02:39:35;100999.67;;;8.43;54.34
62864;BME280;48954;59.950;11.014;2023-06-10T02:42:02;100995.23;;;8.39;54.46
62864;BME280;48954;59.950;11.014;2023-06-10T02:44:30;100997.52;;;8.38;54.88
62864;BME280;48954;59.950;11.014;2023-06-10T02:46:56;101005.90;;;8.38;55.12
62864;BME280;48954;59.950;11.014;2023-06-10T02:49:23;101008.23;;;8.39;55.53
62864;BME280;48954;59.950;11.014;2023-06-10T02:51:53;101008.79;;;8.41;55.73
62864;BME280;48954;59.950;11.014;2023-06-10T02:54:23;101008.78;;;8.39;55.33
62864;BME280;48954;59.950;11.014;2023-06-10T02:56:51;101012.67;;;8.39;54.90
62864;BME280;48954;59.950;11.014;2023-06-10T02:59:18;101013.27;;;8.41;55.05
62864;BME280;48954;59.950;11.014;2023-06-10T03:01:46;101018.51;;;8.44;55.17
62864;BME280;48954;59.950;11.014;2023-06-10T03:04:12;101016.67;;;8.47;55.22
62864;BME280;48954;59.950;11.014;2023-06-10T03:06:39;101017.61;;;8.51;55.07
62864;BME280;48954;59.950;11.014;2023-06-10T03:09:05;101016.30;;;8.56;55.37
62864;BME280;48954;59.950;11.014;2023-06-10T03:11:32;101016.69;;;8.61;55.65
62864;BME280;48954;59.950;11.014;2023-06-10T03:13:58;101020.46;;;8.66;55.88
62864;BME280;48954;59.950;11.014;2023-06-10T03:16:24;101020.58;;;8.71;55.55
62864;BME280;48954;59.950;11.014;2023-06-10T03:18:51;101023.44;;;8.77;55.38
62864;BME280;48954;59.950;11.014;2023-06-10T03:21:18;101026.33;;;8.81;55.23
62864;BME280;48954;59.950;11.014;2023-06-10T03:23:45;101030.09;;;8.88;55.58
62864;BME280;48954;59.950;11.014;2023-06-10T03:26:11;101027.65;;;8.93;55.56
62864;BME280;48954;59.950;11.014;2023-06-10T03:28:38;101029.54;;;9.00;55.33
62864;BME280;48954;59.950;11.014;2023-06-10T03:31:04;101030.34;;;9.05;55.12
62864;BME280;48954;59.950;11.014;2023-06-10T03:33:31;101034.02;;;9.10;55.64
62864;BME280;48954;59.950;11.014;2023-06-10T03:35:57;101035.27;;;9.16;55.62
62864;BME280;48954;59.950;11.014;2023-06-10T03:38:24;101038.16;;;9.21;55.38
62864;BME280;48954;59.950;11.014;2023-06-10T03:40:56;101037.45;;;9.24;55.50
62864;BME280;48954;59.950;11.014;2023-06-10T03:43:22;101039.15;;;9.28;55.46
62864;BME280;48954;59.950;11.014;2023-06-10T03:45:49;101044.04;;;9.32;55.53
62864;BME280;48954;59.950;11.014;2023-06-10T03:48:15;101041.09;;;9.35;55.61
62864;BME280;48954;59.950;11.014;2023-06-10T03:50:42;101044.63;;;9.38;56.36
62864;BME280;48954;59.950;11.014;2023-06-10T03:53:08;101046.38;;;9.42;56.37
62864;BME280;48954;59.950;11.014;2023-06-10T03:55:35;101044.91;;;9.46;56.43
62864;BME280;48954;59.950;11.014;2023-06-10T03:58:01;101050.81;;;9.51;56.40
62864;BME280;48954;59.950;11.014;2023-06-10T04:00:28;101047.70;;;9.56;56.11
62864;BME280;48954;59.950;11.014;2023-06-10T04:02:54;101045.23;;;9.61;55.82
62864;BME280;48954;59.950;11.014;2023-06-10T04:05:21;101051.25;;;9.64;55.85
62864;BME280;48954;59.950;11.014;2023-06-10T04:07:48;101053.36;;;9.65;55.67
62864;BME280;48954;59.950;11.014;2023-06-10T04:10:15;101057.79;;;9.67;55.84
62864;BME280;48954;59.950;11.014;2023-06-10T04:12:41;101050.54;;;9.72;56.10
62864;BME280;48954;59.950;11.014;2023-06-10T04:15:08;101052.00;;;9.75;55.76
62864;BME280;48954;59.950;11.014;2023-06-10T04:17:35;101053.56;;;9.78;55.64
62864;BME280;48954;59.950;11.014;2023-06-10T04:20:01;101052.28;;;9.83;55.67
62864;BME280;48954;59.950;11.014;2023-06-10T04:22:28;101055.93;;;9.89;55.56
62864;BME280;48954;59.950;11.014;2023-06-10T04:24:55;101055.42;;;9.96;55.90
62864;BME280;48954;59.950;11.014;2023-06-10T04:27:21;101050.62;;;10.03;55.58
62864;BME280;48954;59.950;11.014;2023-06-10T04:29:48;101056.29;;;10.10;55.50
62864;BME280;48954;59.950;11.014;2023-06-10T04:32:14;101055.41;;;10.17;55.29
62864;BME280;48954;59.950;11.014;2023-06-10T04:34:40;101058.05;;;10.25;55.29
62864;BME280;48954;59.950;11.014;2023-06-10T04:37:07;101063.38;;;10.33;55.24
62864;BME280;48954;59.950;11.014;2023-06-10T04:39:33;101055.81;;;10.40;54.97
62864;BME280;48954;59.950;11.014;2023-06-10T04:42:00;101052.92;;;10.49;54.79
62864;BME280;48954;59.950;11.014;2023-06-10T04:44:26;101060.38;;;10.58;54.86
62864;BME280;48954;59.950;11.014;2023-06-10T04:46:53;101061.73;;;10.68;54.93
62864;BME280;48954;59.950;11.014;2023-06-10T04:49:19;101065.48;;;10.80;54.89
62864;BME280;48954;59.950;11.014;2023-06-10T04:51:46;101061.59;;;10.92;54.50
62864;BME280;48954;59.950;11.014;2023-06-10T04:54:12;101068.42;;;11.01;54.33
62864;BME280;48954;59.950;11.014;2023-06-10T04:56:39;101069.77;;;11.13;54.35
62864;BME280;48954;59.950;11.014;2023-06-10T04:59:05;101070.33;;;11.25;54.22
62864;BME280;48954;59.950;11.014;2023-06-10T05:01:31;101070.16;;;11.36;53.98
62864;BME280;48954;59.950;11.014;2023-06-10T05:03:58;101071.95;;;11.49;54.27
62864;BME280;48954;59.950;11.014;2023-06-10T05:06:24;101067.30;;;11.64;54.31
62864;BME280;48954;59.950;11.014;2023-06-10T05:08:51;101066.19;;;11.77;53.87
62864;BME280;48954;59.950;11.014;2023-06-10T05:11:22;101068.73;;;11.94;53.70
62864;BME280;48954;59.950;11.014;2023-06-10T05:13:49;101066.13;;;12.11;53.61
62864;BME280;48954;59.950;11.014;2023-06-10T05:16:15;101063.89;;;12.25;53.29
62864;BME280;48954;59.950;11.014;2023-06-10T05:18:42;101065.30;;;12.38;52.78
62864;BME280;48954;59.950;11.014;2023-06-10T05:21:08;101064.13;;;12.49;52.72
62864;BME280;48954;59.950;11.014;2023-06-10T05:23:34;101060.36;;;12.63;52.41
62864;BME280;48954;59.950;11.014;2023-06-10T05:26:01;101059.70;;;12.80;52.60
62864;BME280;48954;59.950;11.014;2023-06-10T05:28:27;101056.55;;;13.00;52.42
62864;BME280;48954;59.950;11.014;2023-06-10T05:30:54;101058.33;;;13.19;52.07
62864;BME280;48954;59.950;11.014;2023-06-10T05:33:20;101056.61;;;13.39;51.57
62864;BME280;48954;59.950;11.014;2023-06-10T05:35:47;101059.02;;;13.58;51.29
62864;BME280;48954;59.950;11.014;2023-06-10T05:38:13;101052.47;;;13.77;51.02
62864;BME280;48954;59.950;11.014;2023-06-10T05:40:40;101055.98;;;13.94;50.57
62864;BME280;48954;59.950;11.014;2023-06-10T05:43:07;101055.79;;;14.09;50.47
62864;BME280;48954;59.950;11.014;2023-06-10T05:45:33;101054.24;;;14.27;50.14
62864;BME280;48954;59.950;11.014;2023-06-10T05:48:00;101055.13;;;14.44;49.79
62864;BME280;48954;59.950;11.014;2023-06-10T05:50:26;101048.67;;;14.61;49.60
62864;BME280;48954;59.950;11.014;2023-06-10T05:52:53;101053.73;;;14.83;49.43
62864;BME280;48954;59.950;11.014;2023-06-10T05:55:19;101051.21;;;15.02;49.04
62864;BME280;48954;59.950;11.014;2023-06-10T05:57:46;101049.38;;;15.18;48.81
62864;BME280;48954;59.950;11.014;2023-06-10T06:00:13;101048.78;;;15.26;48.50
62864;BME280;48954;59.950;11.014;2023-06-10T06:02:39;101041.70;;;15.25;48.06
62864;BME280;48954;59.950;11.014;2023-06-10T06:05:06;101046.45;;;15.28;47.86
62864;BME280;48954;59.950;11.014;2023-06-10T06:07:33;101045.86;;;15.40;47.93
62864;BME280;48954;59.950;11.014;2023-06-10T06:10:00;101049.62;;;15.51;47.60
62864;BME280;48954;59.950;11.014;2023-06-10T06:12:26;101049.23;;;15.68;47.31
62864;BME280;48954;59.950;11.014;2023-06-10T06:14:53;101051.27;;;15.89;47.09
62864;BME280;48954;59.950;11.014;2023-06-10T06:17:19;101054.54;;;15.97;46.33
62864;BME280;48954;59.950;11.014;2023-06-10T06:19:45;101058.75;;;15.97;46.18
62864;BME280;48954;59.950;11.014;2023-06-10T06:22:12;101057.61;;;15.92;46.00
62864;BME280;48954;59.950;11.014;2023-06-10T06:24:38;101054.64;;;15.87;45.87
62864;BME280;48954;59.950;11.014;2023-06-10T06:27:05;101060.84;;;15.80;45.66
62864;BME280;48954;59.950;11.014;2023-06-10T06:29:31;101060.84;;;15.73;45.63
62864;BME280;48954;59.950;11.014;2023-06-10T06:31:59;101060.67;;;15.69;45.71
62864;BME280;48954;59.950;11.014;2023-06-10T06:34:26;101062.48;;;15.65;45.91
62864;BME280;48954;59.950;11.014;2023-06-10T06:36:56;101062.84;;;15.63;45.55
62864;BME280;48954;59.950;11.014;2023-06-10T06:39:22;101064.02;;;15.63;45.54
62864;BME280;48954;59.950;11.014;2023-06-10T06:41:49;101065.56;;;15.61;45.28
62864;BME280;48954;59.950;11.014;2023-06-10T06:44:15;101067.59;;;15.56;45.21
62864;BME280;48954;59.950;11.014;2023-06-10T06:46:42;101064.96;;;15.51;45.05
62864;BME280;48954;59.950;11.014;2023-06-10T06:49:08;101066.55;;;15.48;45.18
62864;BME280;48954;59.950;11.014;2023-06-10T06:51:34;101069.52;;;15.49;44.79
62864;BME280;48954;59.950;11.014;2023-06-10T06:54:02;101066.77;;;15.55;44.66
62864;BME280;48954;59.950;11.014;2023-06-10T06:56:29;101064.87;;;15.73;44.47
62864;BME280;48954;59.950;11.014;2023-06-10T06:58:55;101066.15;;;15.91;44.70
62864;BME280;48954;59.950;11.014;2023-06-10T07:01:24;101068.47;;;16.11;45.02
62864;BME280;48954;59.950;11.014;2023-06-10T07:03:52;101072.43;;;16.34;44.74
62864;BME280;48954;59.950;11.014;2023-06-10T07:06:19;101072.13;;;16.59;44.63
62864;BME280;48954;59.950;11.014;2023-06-10T07:08:45;101069.92;;;16.85;44.41
62864;BME280;48954;59.950;11.014;2023-06-10T07:11:12;101069.20;;;17.12;44.42
62864;BME280;48954;59.950;11.014;2023-06-10T07:13:39;101069.15;;;17.39;44.21
62864;BME280;48954;59.950;11.014;2023-06-10T07:16:05;101068.30;;;17.64;43.49
62864;BME280;48954;59.950;11.014;2023-06-10T07:18:32;101071.34;;;17.82;42.42
62864;BME280;48954;59.950;11.014;2023-06-10T07:20:58;101071.26;;;17.94;42.02
62864;BME280;48954;59.950;11.014;2023-06-10T07:23:25;101070.67;;;18.10;42.27
62864;BME280;48954;59.950;11.014;2023-06-10T07:25:51;101070.09;;;18.27;41.72
62864;BME280;48954;59.950;11.014;2023-06-10T07:28:18;101063.10;;;18.42;41.06
62864;BME280;48954;59.950;11.014;2023-06-10T07:30:45;101066.10;;;18.47;39.79
62864;BME280;48954;59.950;11.014;2023-06-10T07:33:11;101063.57;;;18.55;40.13
62864;BME280;48954;59.950;11.014;2023-06-10T07:35:38;101062.02;;;18.65;40.00
62864;BME280;48954;59.950;11.014;2023-06-10T07:38:04;101063.01;;;18.67;38.99
62864;BME280;48954;59.950;11.014;2023-06-10T07:40:46;101062.09;;;18.51;38.05
62864;BME280;48954;59.950;11.014;2023-06-10T07:43:13;101061.42;;;18.41;37.84
62864;BME280;48954;59.950;11.014;2023-06-10T07:45:40;101066.77;;;18.30;37.44
62864;BME280;48954;59.950;11.014;2023-06-10T07:48:07;101065.64;;;18.28;37.27
62864;BME280;48954;59.950;11.014;2023-06-10T07:50:34;101065.85;;;18.38;38.25
62864;BME280;48954;59.950;11.014;2023-06-10T07:53:01;101066.11;;;18.68;37.10
62864;BME280;48954;59.950;11.014;2023-06-10T07:55:28;101063.32;;;19.01;36.13
62864;BME280;48954;59.950;11.014;2023-06-10T07:57:54;101060.71;;;19.32;35.78
62864;BME280;48954;59.950;11.014;2023-06-10T08:00:21;101058.91;;;19.56;34.45
62864;BME280;48954;59.950;11.014;2023-06-10T08:02:47;101055.14;;;19.78;34.21
62864;BME280;48954;59.950;11.014;2023-06-10T08:05:14;101055.23;;;19.98;33.86
62864;BME280;48954;59.950;11.014;2023-06-10T08:07:40;101056.38;;;20.20;33.70
62864;BME280;48954;59.950;11.014;2023-06-10T08:10:07;101051.89;;;20.37;33.11
62864;BME280;48954;59.950;11.014;2023-06-10T08:12:35;101056.59;;;20.54;33.09
62864;BME280;48954;59.950;11.014;2023-06-10T08:15:02;101053.19;;;20.72;33.14
62864;BME280;48954;59.950;11.014;2023-06-10T08:17:28;101058.25;;;20.89;32.82
62864;BME280;48954;59.950;11.014;2023-06-10T08:19:55;101059.05;;;21.07;31.93
62864;BME280;48954;59.950;11.014;2023-06-10T08:22:21;101057.86;;;21.10;31.07
62864;BME280;48954;59.950;11.014;2023-06-10T08:24:48;101058.34;;;21.16;31.56
62864;BME280;48954;59.950;11.014;2023-06-10T08:27:14;101054.14;;;21.26;31.08
62864;BME280;48954;59.950;11.014;2023-06-10T08:29:41;101052.84;;;21.33;30.87
62864;BME280;48954;59.950;11.014;2023-06-10T08:32:08;101048.84;;;21.36;30.68
62864;BME280;48954;59.950;11.014;2023-06-10T08:34:34;101050.92;;;21.40;30.74
62864;BME280;48954;59.950;11.014;2023-06-10T08:37:02;101054.50;;;21.45;30.22
62864;BME280;48954;59.950;11.014;2023-06-10T08:39:29;101054.66;;;21.50;30.16
62864;BME280;48954;59.950;11.014;2023-06-10T08:42:11;101052.09;;;21.60;30.24
62864;BME280;48954;59.950;11.014;2023-06-10T08:44:43;101053.64;;;21.69;29.88
62864;BME280;48954;59.950;11.014;2023-06-10T08:47:16;101049.09;;;21.76;29.95
62864;BME280;48954;59.950;11.014;2023-06-10T08:49:45;101056.73;;;21.81;29.09
62864;BME280;48954;59.950;11.014;2023-06-10T08:52:19;101051.05;;;21.85;29.04
62864;BME280;48954;59.950;11.014;2023-06-10T08:54:52;101046.89;;;21.89;28.89
62864;BME280;48954;59.950;11.014;2023-06-10T08:57:20;101049.42;;;21.99;29.40
62864;BME280;48954;59.950;11.014;2023-06-10T08:59:48;101051.80;;;22.08;28.45
62864;BME280;48954;59.950;11.014;2023-06-10T09:02:15;101047.30;;;22.12;28.28
62864;BME280;48954;59.950;11.014;2023-06-10T09:04:44;101043.22;;;22.10;28.51
62864;BME280;48954;59.950;11.014;2023-06-10T09:07:13;101043.46;;;22.14;28.33
62864;BME280;48954;59.950;11.014;2023-06-10T09:09:42;101046.65;;;22.14;27.83
62864;BME280;48954;59.950;11.014;2023-06-10T09:12:09;101046.64;;;22.19;28.13
62864;BME280;48954;59.950;11.014;2023-06-10T09:14:35;101040.98;;;22.30;28.10
62864;BME280;48954;59.950;11.014;2023-06-10T09:17:03;101036.30;;;22.36;27.94
62864;BME280;48954;59.950;11.014;2023-06-10T09:19:30;101035.73;;;22.37;27.72
62864;BME280;48954;59.950;11.014;2023-06-10T09:21:58;101040.05;;;22.36;27.03
62864;BME280;48954;59.950;11.014;2023-06-10T09:24:24;101042.38;;;22.36;26.89
62864;BME280;48954;59.950;11.014;2023-06-10T09:27:07;101046.85;;;22.38;26.71
62864;BME280;48954;59.950;11.014;2023-06-10T09:29:45;101039.98;;;22.34;26.15
62864;BME280;48954;59.950;11.014;2023-06-10T09:32:12;101038.30;;;22.22;26.14
62864;BME280;48954;59.950;11.014;2023-06-10T09:34:39;101030.98;;;22.07;25.46
62864;BME280;48954;59.950;11.014;2023-06-10T09:37:06;101032.20;;;21.76;25.40
62864;BME280;48954;59.950;11.014;2023-06-10T09:39:32;101032.38;;;21.68;25.86
62864;BME280;48954;59.950;11.014;2023-06-10T09:41:59;101028.92;;;21.74;25.79
62864;BME280;48954;59.950;11.014;2023-06-10T09:44:27;101028.02;;;21.81;26.16
62864;BME280;48954;59.950;11.014;2023-06-10T09:46:58;101019.50;;;21.93;26.27
62864;BME280;48954;59.950;11.014;2023-06-10T09:49:28;101022.45;;;22.02;26.10
62864;BME280;48954;59.950;11.014;2023-06-10T09:51:55;101019.16;;;21.99;25.35
62864;BME280;48954;59.950;11.014;2023-06-10T09:54:21;101017.55;;;21.79;25.33
62864;BME280;48954;59.950;11.014;2023-06-10T09:56:51;101007.27;;;21.65;25.33
62864;BME280;48954;59.950;11.014;2023-06-10T09:59:44;101018.00;;;21.64;25.47
62864;BME280;48954;59.950;11.014;2023-06-10T10:02:16;101016.92;;;21.77;25.45
62864;BME280;48954;59.950;11.014;2023-06-10T10:04:44;101009.67;;;21.89;25.14
62864;BME280;48954;59.950;11.014;2023-06-10T10:07:11;101011.80;;;21.95;24.98
62864;BME280;48954;59.950;11.014;2023-06-10T10:09:39;101008.13;;;22.01;25.03
62864;BME280;48954;59.950;11.014;2023-06-10T10:12:14;101006.16;;;22.10;25.12
62864;BME280;48954;59.950;11.014;2023-06-10T10:14:46;101005.51;;;22.15;24.54
62864;BME280;48954;59.950;11.014;2023-06-10T10:17:14;101003.44;;;22.14;25.01
62864;BME280;48954;59.950;11.014;2023-06-10T10:20:04;101001.58;;;22.18;24.78
62864;BME280;48954;59.950;11.014;2023-06-10T10:22:37;100993.23;;;22.19;25.08
62864;BME280;48954;59.950;11.014;2023-06-10T10:25:10;101000.02;;;22.21;24.79
62864;BME280;48954;59.950;11.014;2023-06-10T10:27:51;100999.39;;;22.21;24.34
62864;BME280;48954;59.950;11.014;2023-06-10T10:30:20;100997.50;;;22.14;24.12
62864;BME280;48954;59.950;11.014;2023-06-10T10:32:58;100990.88;;;22.09;24.27
62864;BME280;48954;59.950;11.014;2023-06-10T10:35:26;100985.36;;;22.10;24.06
62864;BME280;48954;59.950;11.014;2023-06-10T10:37:54;100985.16;;;21.96;23.80
62864;BME280;48954;59.950;11.014;2023-06-10T10:40:21;100983.59;;;21.90;23.59
62864;BME280;48954;59.950;11.014;2023-06-10T10:42:49;100985.44;;;21.86;23.61
62864;BME280;48954;59.950;11.014;2023-06-10T10:45:17;100981.31;;;21.78;23.39
62864;BME280;48954;59.950;11.014;2023-06-10T10:47:52;100975.74;;;21.68;23.79
62864;BME280;48954;59.950;11.014;2023-06-10T10:50:20;100983.39;;;21.75;24.10
62864;BME280;48954;59.950;11.014;2023-06-10T10:52:55;100982.12;;;21.77;24.02
62864;BME280;48954;59.950;11.014;2023-06-10T10:55:26;100984.83;;;21.80;24.29
62864;BME280;48954;59.950;11.014;2023-06-10T10:58:02;100983.35;;;21.87;24.35
62864;BME280;48954;59.950;11.014;2023-06-10T11:00:35;100983.74;;;21.91;24.32
62864;BME280;48954;59.950;11.014;2023-06-10T11:05:39;100983.95;;;21.95;24.35
62864;BME280;48954;59.950;11.014;2023-06-10T11:08:08;100982.50;;;21.96;23.91
62864;BME280;48954;59.950;11.014;2023-06-10T11:10:50;100980.90;;;21.96;24.01
62864;BME280;48954;59.950;11.014;2023-06-10T11:13:19;100979.77;;;21.97;23.85
62864;BME280;48954;59.950;11.014;2023-06-10T11:15:48;100977.61;;;21.97;23.78
62864;BME280;48954;59.950;11.014;2023-06-10T11:18:25;100963.70;;;21.96;24.12
62864;BME280;48954;59.950;11.014;2023-06-10T11:21:00;100973.08;;;22.01;24.02
62864;BME280;48954;59.950;11.014;2023-06-10T11:26:09;100969.63;;;22.17;23.71
62864;BME280;48954;59.950;11.014;2023-06-10T11:28:36;100968.14;;;22.23;23.40
62864;BME280;48954;59.950;11.014;2023-06-10T11:31:03;100968.54;;;22.25;23.40
62864;BME280;48954;59.950;11.014;2023-06-10T11:33:31;100962.05;;;22.22;23.26
62864;BME280;48954;59.950;11.014;2023-06-10T11:35:58;100964.86;;;22.24;23.64
62864;BME280;48954;59.950;11.014;2023-06-10T11:38:25;100963.48;;;22.26;23.45
62864;BME280;48954;59.950;11.014;2023-06-10T11:40:51;100961.64;;;22.26;23.16
62864;BME280;48954;59.950;11.014;2023-06-10T11:43:18;100955.98;;;22.23;23.06
62864;BME280;48954;59.950;11.014;2023-06-10T11:45:45;100958.50;;;22.30;23.20
62864;BME280;48954;59.950;11.014;2023-06-10T11:48:12;100955.44;;;22.45;23.24
62864;BME280;48954;59.950;11.014;2023-06-10T11:50:39;100954.41;;;22.43;23.27
62864;BME280;48954;59.950;11.014;2023-06-10T11:53:08;100955.13;;;22.44;23.21
62864;BME280;48954;59.950;11.014;2023-06-10T11:55:45;100954.70;;;22.46;23.19
62864;BME280;48954;59.950;11.014;2023-06-10T11:58:14;100947.92;;;22.44;23.28
62864;BME280;48954;59.950;11.014;2023-06-10T12:00:47;100947.80;;;22.47;23.25
62864;BME280;48954;59.950;11.014;2023-06-10T12:03:15;100947.06;;;22.51;23.20
62864;BME280;48954;59.950;11.014;2023-06-10T12:05:58;100947.38;;;22.52;23.03
62864;BME280;48954;59.950;11.014;2023-06-10T12:08:26;100943.54;;;22.50;22.91
62864;BME280;48954;59.950;11.014;2023-06-10T12:10:53;100942.23;;;22.44;22.40
62864;BME280;48954;59.950;11.014;2023-06-10T12:13:20;100941.52;;;22.43;22.79
62864;BME280;48954;59.950;11.014;2023-06-10T12:15:47;100938.84;;;22.46;22.85
62864;BME280;48954;59.950;11.014;2023-06-10T12:18:21;100934.17;;;22.49;23.09
62864;BME280;48954;59.950;11.014;2023-06-10T12:20:48;100936.26;;;22.49;23.03
62864;BME280;48954;59.950;11.014;2023-06-10T12:23:16;100932.96;;;22.51;23.07
62864;BME280;48954;59.950;11.014;2023-06-10T12:25:50;100933.27;;;22.55;23.07
62864;BME280;48954;59.950;11.014;2023-06-10T12:28:18;100930.39;;;22.60;22.83
62864;BME280;48954;59.950;11.014;2023-06-10T12:30:46;100930.02;;;22.59;22.61
62864;BME280;48954;59.950;11.014;2023-06-10T12:33:17;100924.83;;;22.57;22.96
62864;BME280;48954;59.950;11.014;2023-06-10T12:35:48;100929.70;;;22.59;23.22
62864;BME280;48954;59.950;11.014;2023-06-10T12:38:24;100922.80;;;22.59;22.96
62864;BME280;48954;59.950;11.014;2023-06-10T12:40:51;100923.35;;;22.52;23.15
62864;BME280;48954;59.950;11.014;2023-06-10T12:43:20;100921.90;;;22.51;23.13
62864;BME280;48954;59.950;11.014;2023-06-10T12:45:49;100919.73;;;22.52;23.06
62864;BME280;48954;59.950;11.014;2023-06-10T12:48:23;100916.11;;;22.56;23.24
62864;BME280;48954;59.950;11.014;2023-06-10T12:50:55;100915.55;;;22.64;23.22
62864;BME280;48954;59.950;11.014;2023-06-10T12:53:24;100916.67;;;22.64;23.08
62864;BME280;48954;59.950;11.014;2023-06-10T12:55:51;100916.73;;;22.68;22.99